sensor_id;sensor_type;location;lat;lon;timestamp;P1;durP1;ratioP1;P2;durP2;ratioP2
73276;SDS011;61501;43.316;5.372;2023-07-13T00:14:08;13.25;;;6.35;;
73276;SDS011;61501;43.316;5.372;2023-07-13T00:17:20;13.60;;;5.72;;
73276;SDS011;61501;43.316;5.372;2023-07-13T00:34:23;7.93;;;5.90;;
73276;SDS011;61501;43.316;5.372;2023-07-13T00:54:14;7.18;;;4.60;;
73276;SDS011;61501;43.316;5.372;2023-07-13T00:59:13;6.47;;;4.63;;
73276;SDS011;61501;43.316;5.372;2023-07-13T01:01:42;6.10;;;4.32;;
73276;SDS011;61501;43.316;5.372;2023-07-13T01:04:07;6.15;;;4.18;;
73276;SDS011;61501;43.316;5.372;2023-07-13T01:06:37;5.70;;;4.63;;
73276;SDS011;61501;43.316;5.372;2023-07-13T01:09:04;11.35;;;4.60;;
73276;SDS011;61501;43.316;5.372;2023-07-13T01:11:32;5.05;;;4.38;;
73276;SDS011;61501;43.316;5.372;2023-07-13T01:13:58;6.03;;;4.22;;
73276;SDS011;61501;43.316;5.372;2023-07-13T01:16:25;7.35;;;4.75;;
73276;SDS011;61501;43.316;5.372;2023-07-13T01:18:54;8.40;;;5.68;;
73276;SDS011;61501;43.316;5.372;2023-07-13T01:21:23;5.50;;;4.70;;
73276;SDS011;61501;43.316;5.372;2023-07-13T01:23:49;5.88;;;4.70;;
73276;SDS011;61501;43.316;5.372;2023-07-13T01:26:15;5.88;;;4.50;;
73276;SDS011;61501;43.316;5.372;2023-07-13T01:28:41;9.50;;;4.85;;
73276;SDS011;61501;43.316;5.372;2023-07-13T01:31:06;6.95;;;5.05;;
73276;SDS011;61501;43.316;5.372;2023-07-13T01:33:33;6.10;;;5.07;;
73276;SDS011;61501;43.316;5.372;2023-07-13T01:35:59;6.57;;;4.88;;
73276;SDS011;61501;43.316;5.372;2023-07-13T01:38:27;5.95;;;4.80;;
73276;SDS011;61501;43.316;5.372;2023-07-13T01:40:53;6.40;;;5.05;;
73276;SDS011;61501;43.316;5.372;2023-07-13T01:43:19;6.30;;;5.20;;
73276;SDS011;61501;43.316;5.372;2023-07-13T01:45:45;7.70;;;5.20;;
73276;SDS011;61501;43.316;5.372;2023-07-13T01:48:11;8.40;;;5.32;;
73276;SDS011;61501;43.316;5.372;2023-07-13T01:50:37;8.18;;;5.30;;
73276;SDS011;61501;43.316;5.372;2023-07-13T01:53:03;6.97;;;5.28;;
73276;SDS011;61501;43.316;5.372;2023-07-13T01:55:29;10.25;;;5.18;;
73276;SDS011;61501;43.316;5.372;2023-07-13T01:57:56;7.20;;;5.35;;
73276;SDS011;61501;43.316;5.372;2023-07-13T02:00:22;7.38;;;4.85;;
73276;SDS011;61501;43.316;5.372;2023-07-13T02:02:48;6.03;;;5.38;;
73276;SDS011;61501;43.316;5.372;2023-07-13T02:05:14;6.93;;;5.35;;
73276;SDS011;61501;43.316;5.372;2023-07-13T02:07:40;8.70;;;5.82;;
73276;SDS011;61501;43.316;5.372;2023-07-13T02:10:06;5.68;;;5.07;;
73276;SDS011;61501;43.316;5.372;2023-07-13T02:12:33;5.97;;;5.22;;
73276;SDS011;61501;43.316;5.372;2023-07-13T02:14:59;9.30;;;5.30;;
73276;SDS011;61501;43.316;5.372;2023-07-13T02:17:25;7.40;;;5.07;;
73276;SDS011;61501;43.316;5.372;2023-07-13T02:19:51;5.88;;;5.30;;
73276;SDS011;61501;43.316;5.372;2023-07-13T02:22:17;5.75;;;5.18;;
73276;SDS011;61501;43.316;5.372;2023-07-13T02:24:43;5.90;;;5.30;;
73276;SDS011;61501;43.316;5.372;2023-07-13T02:27:09;6.03;;;4.90;;
73276;SDS011;61501;43.316;5.372;2023-07-13T02:29:35;6.60;;;5.90;;
73276;SDS011;61501;43.316;5.372;2023-07-13T02:32:00;9.13;;;5.30;;
73276;SDS011;61501;43.316;5.372;2023-07-13T02:34:26;6.07;;;4.60;;
73276;SDS011;61501;43.316;5.372;2023-07-13T02:36:52;7.82;;;4.93;;
73276;SDS011;61501;43.316;5.372;2023-07-13T02:39:17;7.63;;;5.18;;
73276;SDS011;61501;43.316;5.372;2023-07-13T02:41:43;8.73;;;5.53;;
73276;SDS011;61501;43.316;5.372;2023-07-13T02:44:08;8.55;;;5.07;;
73276;SDS011;61501;43.316;5.372;2023-07-13T02:46:35;9.35;;;5.32;;
73276;SDS011;61501;43.316;5.372;2023-07-13T02:49:02;6.55;;;5.00;;
73276;SDS011;61501;43.316;5.372;2023-07-13T02:51:28;6.57;;;4.30;;
73276;SDS011;61501;43.316;5.372;2023-07-13T02:53:54;11.70;;;5.13;;
73276;SDS011;61501;43.316;5.372;2023-07-13T02:56:24;6.50;;;4.60;;
73276;SDS011;61501;43.316;5.372;2023-07-13T02:58:51;7.70;;;4.97;;
73276;SDS011;61501;43.316;5.372;2023-07-13T03:01:18;5.60;;;4.70;;
73276;SDS011;61501;43.316;5.372;2023-07-13T03:03:44;5.93;;;4.72;;
73276;SDS011;61501;43.316;5.372;2023-07-13T03:06:11;5.65;;;4.45;;
73276;SDS011;61501;43.316;5.372;2023-07-13T03:08:38;17.10;;;4.88;;
73276;SDS011;61501;43.316;5.372;2023-07-13T03:11:06;5.30;;;4.10;;
73276;SDS011;61501;43.316;5.372;2023-07-13T03:13:33;7.45;;;4.20;;
73276;SDS011;61501;43.316;5.372;2023-07-13T03:15:59;7.47;;;4.05;;
73276;SDS011;61501;43.316;5.372;2023-07-13T03:18:26;5.97;;;4.13;;
73276;SDS011;61501;43.316;5.372;2023-07-13T03:20:53;9.77;;;4.55;;
73276;SDS011;61501;43.316;5.372;2023-07-13T03:23:19;6.30;;;5.03;;
73276;SDS011;61501;43.316;5.372;2023-07-13T03:25:46;7.93;;;3.88;;
73276;SDS011;61501;43.316;5.372;2023-07-13T03:28:12;7.57;;;4.18;;
73276;SDS011;61501;43.316;5.372;2023-07-13T03:30:38;5.22;;;3.67;;
73276;SDS011;61501;43.316;5.372;2023-07-13T03:33:04;10.00;;;5.25;;
73276;SDS011;61501;43.316;5.372;2023-07-13T03:35:30;5.28;;;4.28;;
73276;SDS011;61501;43.316;5.372;2023-07-13T03:37:57;7.13;;;3.88;;
73276;SDS011;61501;43.316;5.372;2023-07-13T03:40:24;7.15;;;3.83;;
73276;SDS011;61501;43.316;5.372;2023-07-13T03:42:51;5.72;;;3.50;;
73276;SDS011;61501;43.316;5.372;2023-07-13T03:45:17;5.93;;;4.75;;
73276;SDS011;61501;43.316;5.372;2023-07-13T03:47:43;6.35;;;4.10;;
73276;SDS011;61501;43.316;5.372;2023-07-13T03:50:08;4.80;;;3.70;;
73276;SDS011;61501;43.316;5.372;2023-07-13T03:52:34;6.65;;;3.92;;
73276;SDS011;61501;43.316;5.372;2023-07-13T03:55:00;6.28;;;3.45;;
73276;SDS011;61501;43.316;5.372;2023-07-13T03:57:25;6.38;;;3.45;;
73276;SDS011;61501;43.316;5.372;2023-07-13T03:59:51;4.88;;;3.88;;
73276;SDS011;61501;43.316;5.372;2023-07-13T04:02:17;5.20;;;3.42;;
73276;SDS011;61501;43.316;5.372;2023-07-13T04:04:43;6.18;;;3.55;;
73276;SDS011;61501;43.316;5.372;2023-07-13T04:07:08;6.93;;;3.55;;
73276;SDS011;61501;43.316;5.372;2023-07-13T04:09:34;7.75;;;3.58;;
73276;SDS011;61501;43.316;5.372;2023-07-13T04:12:01;5.22;;;3.40;;
73276;SDS011;61501;43.316;5.372;2023-07-13T04:14:27;6.03;;;3.95;;
73276;SDS011;61501;43.316;5.372;2023-07-13T04:16:52;4.63;;;3.22;;
73276;SDS011;61501;43.316;5.372;2023-07-13T04:19:19;5.63;;;3.65;;
73276;SDS011;61501;43.316;5.372;2023-07-13T04:21:45;5.82;;;3.45;;
73276;SDS011;61501;43.316;5.372;2023-07-13T04:24:11;6.75;;;3.88;;
73276;SDS011;61501;43.316;5.372;2023-07-13T04:26:38;7.25;;;3.08;;
73276;SDS011;61501;43.316;5.372;2023-07-13T04:29:04;4.43;;;3.28;;
73276;SDS011;61501;43.316;5.372;2023-07-13T04:31:30;5.60;;;3.50;;
73276;SDS011;61501;43.316;5.372;2023-07-13T04:33:57;10.18;;;2.97;;
73276;SDS011;61501;43.316;5.372;2023-07-13T04:36:22;5.10;;;3.05;;
73276;SDS011;61501;43.316;5.372;2023-07-13T04:38:52;4.55;;;3.22;;
73276;SDS011;61501;43.316;5.372;2023-07-13T04:41:19;8.00;;;3.13;;
73276;SDS011;61501;43.316;5.372;2023-07-13T04:43:45;7.53;;;3.20;;
73276;SDS011;61501;43.316;5.372;2023-07-13T04:46:12;5.00;;;3.15;;
73276;SDS011;61501;43.316;5.372;2023-07-13T04:48:40;7.05;;;3.70;;
73276;SDS011;61501;43.316;5.372;2023-07-13T04:51:06;3.70;;;3.00;;
73276;SDS011;61501;43.316;5.372;2023-07-13T04:53:32;6.97;;;3.08;;
73276;SDS011;61501;43.316;5.372;2023-07-13T04:55:59;4.00;;;3.00;;
73276;SDS011;61501;43.316;5.372;2023-07-13T04:58:25;5.72;;;3.13;;
73276;SDS011;61501;43.316;5.372;2023-07-13T05:00:52;5.57;;;3.28;;
73276;SDS011;61501;43.316;5.372;2023-07-13T05:03:18;4.40;;;2.90;;
73276;SDS011;61501;43.316;5.372;2023-07-13T05:05:54;6.75;;;3.00;;
73276;SDS011;61501;43.316;5.372;2023-07-13T05:08:21;5.35;;;3.10;;
73276;SDS011;61501;43.316;5.372;2023-07-13T05:10:46;7.13;;;3.35;;
73276;SDS011;61501;43.316;5.372;2023-07-13T05:13:12;7.05;;;3.05;;
73276;SDS011;61501;43.316;5.372;2023-07-13T05:15:38;8.88;;;3.65;;
73276;SDS011;61501;43.316;5.372;2023-07-13T05:18:03;7.60;;;3.15;;
73276;SDS011;61501;43.316;5.372;2023-07-13T05:20:29;5.47;;;3.10;;
73276;SDS011;61501;43.316;5.372;2023-07-13T05:22:55;8.77;;;3.03;;
73276;SDS011;61501;43.316;5.372;2023-07-13T05:25:21;5.50;;;2.80;;
73276;SDS011;61501;43.316;5.372;2023-07-13T05:27:46;7.22;;;3.35;;
73276;SDS011;61501;43.316;5.372;2023-07-13T05:30:12;4.82;;;3.03;;
73276;SDS011;61501;43.316;5.372;2023-07-13T05:32:38;11.48;;;3.65;;
73276;SDS011;61501;43.316;5.372;2023-07-13T05:35:04;10.07;;;3.25;;
73276;SDS011;61501;43.316;5.372;2023-07-13T05:37:34;6.18;;;3.10;;
73276;SDS011;61501;43.316;5.372;2023-07-13T05:39:59;8.65;;;3.33;;
73276;SDS011;61501;43.316;5.372;2023-07-13T05:42:25;11.95;;;3.10;;
73276;SDS011;61501;43.316;5.372;2023-07-13T05:44:51;10.10;;;3.22;;
73276;SDS011;61501;43.316;5.372;2023-07-13T05:47:16;10.55;;;3.55;;
73276;SDS011;61501;43.316;5.372;2023-07-13T05:49:42;12.18;;;3.10;;
73276;SDS011;61501;43.316;5.372;2023-07-13T05:52:07;8.63;;;3.25;;
73276;SDS011;61501;43.316;5.372;2023-07-13T05:54:33;7.88;;;3.08;;
73276;SDS011;61501;43.316;5.372;2023-07-13T05:56:59;8.20;;;3.22;;
73276;SDS011;61501;43.316;5.372;2023-07-13T05:59:24;8.32;;;3.63;;
73276;SDS011;61501;43.316;5.372;2023-07-13T06:01:50;9.23;;;3.63;;
73276;SDS011;61501;43.316;5.372;2023-07-13T06:04:17;13.32;;;3.63;;
73276;SDS011;61501;43.316;5.372;2023-07-13T06:06:43;8.38;;;3.35;;
73276;SDS011;61501;43.316;5.372;2023-07-13T06:09:09;9.73;;;3.05;;
73276;SDS011;61501;43.316;5.372;2023-07-13T06:11:37;5.43;;;2.70;;
73276;SDS011;61501;43.316;5.372;2023-07-13T06:14:03;9.15;;;2.95;;
73276;SDS011;61501;43.316;5.372;2023-07-13T06:16:29;10.00;;;3.20;;
73276;SDS011;61501;43.316;5.372;2023-07-13T06:18:54;9.73;;;3.00;;
73276;SDS011;61501;43.316;5.372;2023-07-13T06:21:21;12.38;;;2.70;;
73276;SDS011;61501;43.316;5.372;2023-07-13T06:23:48;9.55;;;2.83;;
73276;SDS011;61501;43.316;5.372;2023-07-13T06:26:14;11.63;;;2.75;;
73276;SDS011;61501;43.316;5.372;2023-07-13T06:28:41;5.68;;;2.70;;
73276;SDS011;61501;43.316;5.372;2023-07-13T06:31:08;6.53;;;2.90;;
73276;SDS011;61501;43.316;5.372;2023-07-13T06:33:35;8.32;;;3.00;;
73276;SDS011;61501;43.316;5.372;2023-07-13T06:36:02;15.40;;;3.40;;
73276;SDS011;61501;43.316;5.372;2023-07-13T06:38:28;13.48;;;3.45;;
73276;SDS011;61501;43.316;5.372;2023-07-13T06:40:54;9.55;;;2.83;;
73276;SDS011;61501;43.316;5.372;2023-07-13T06:43:20;8.85;;;2.80;;
73276;SDS011;61501;43.316;5.372;2023-07-13T06:45:46;5.22;;;3.08;;
73276;SDS011;61501;43.316;5.372;2023-07-13T06:48:18;11.60;;;3.10;;
73276;SDS011;61501;43.316;5.372;2023-07-13T06:50:44;13.88;;;4.10;;
73276;SDS011;61501;43.316;5.372;2023-07-13T06:53:11;8.27;;;3.03;;
73276;SDS011;61501;43.316;5.372;2023-07-13T06:55:37;14.20;;;3.50;;
73276;SDS011;61501;43.316;5.372;2023-07-13T06:58:03;11.50;;;3.60;;
73276;SDS011;61501;43.316;5.372;2023-07-13T07:00:29;13.27;;;3.42;;
73276;SDS011;61501;43.316;5.372;2023-07-13T07:02:55;8.40;;;3.03;;
73276;SDS011;61501;43.316;5.372;2023-07-13T07:05:21;11.40;;;2.58;;
73276;SDS011;61501;43.316;5.372;2023-07-13T07:07:50;10.38;;;3.17;;
73276;SDS011;61501;43.316;5.372;2023-07-13T07:10:17;7.55;;;3.13;;
73276;SDS011;61501;43.316;5.372;2023-07-13T07:12:43;11.45;;;3.35;;
73276;SDS011;61501;43.316;5.372;2023-07-13T07:15:09;4.80;;;2.60;;
73276;SDS011;61501;43.316;5.372;2023-07-13T07:17:35;5.95;;;2.88;;
73276;SDS011;61501;43.316;5.372;2023-07-13T07:20:01;10.55;;;2.70;;
73276;SDS011;61501;43.316;5.372;2023-07-13T07:22:28;9.43;;;3.13;;
73276;SDS011;61501;43.316;5.372;2023-07-13T07:24:55;8.52;;;2.88;;
73276;SDS011;61501;43.316;5.372;2023-07-13T07:27:21;5.47;;;2.47;;
73276;SDS011;61501;43.316;5.372;2023-07-13T07:29:48;9.60;;;2.55;;
73276;SDS011;61501;43.316;5.372;2023-07-13T07:32:13;11.02;;;2.90;;
73276;SDS011;61501;43.316;5.372;2023-07-13T07:34:39;7.20;;;2.30;;
73276;SDS011;61501;43.316;5.372;2023-07-13T07:37:12;15.27;;;3.13;;
73276;SDS011;61501;43.316;5.372;2023-07-13T07:39:39;7.75;;;2.20;;
73276;SDS011;61501;43.316;5.372;2023-07-13T07:42:19;4.65;;;2.28;;
73276;SDS011;61501;43.316;5.372;2023-07-13T07:44:45;8.48;;;2.15;;
73276;SDS011;61501;43.316;5.372;2023-07-13T07:47:10;11.60;;;2.80;;
73276;SDS011;61501;43.316;5.372;2023-07-13T07:49:36;10.95;;;2.38;;
73276;SDS011;61501;43.316;5.372;2023-07-13T07:52:03;9.20;;;2.42;;
73276;SDS011;61501;43.316;5.372;2023-07-13T07:54:29;5.30;;;2.08;;
73276;SDS011;61501;43.316;5.372;2023-07-13T07:56:55;12.07;;;2.08;;
73276;SDS011;61501;43.316;5.372;2023-07-13T07:59:20;4.47;;;1.88;;
73276;SDS011;61501;43.316;5.372;2023-07-13T08:01:46;8.75;;;1.77;;
73276;SDS011;61501;43.316;5.372;2023-07-13T08:04:15;14.70;;;2.50;;
73276;SDS011;61501;43.316;5.372;2023-07-13T08:06:41;4.22;;;1.80;;
73276;SDS011;61501;43.316;5.372;2023-07-13T08:09:06;11.95;;;2.05;;
73276;SDS011;61501;43.316;5.372;2023-07-13T08:11:33;10.35;;;2.05;;
73276;SDS011;61501;43.316;5.372;2023-07-13T08:13:59;6.70;;;2.10;;
73276;SDS011;61501;43.316;5.372;2023-07-13T08:16:24;5.15;;;2.08;;
73276;SDS011;61501;43.316;5.372;2023-07-13T08:18:51;13.35;;;2.08;;
73276;SDS011;61501;43.316;5.372;2023-07-13T08:21:16;7.47;;;2.20;;
73276;SDS011;61501;43.316;5.372;2023-07-13T08:23:44;10.75;;;2.08;;
73276;SDS011;61501;43.316;5.372;2023-07-13T08:26:11;8.43;;;1.88;;
73276;SDS011;61501;43.316;5.372;2023-07-13T08:28:36;4.68;;;1.77;;
73276;SDS011;61501;43.316;5.372;2023-07-13T08:31:02;10.68;;;2.30;;
73276;SDS011;61501;43.316;5.372;2023-07-13T08:33:33;14.18;;;3.05;;
73276;SDS011;61501;43.316;5.372;2023-07-13T08:36:00;18.23;;;3.17;;
73276;SDS011;61501;43.316;5.372;2023-07-13T08:38:26;9.57;;;2.47;;
73276;SDS011;61501;43.316;5.372;2023-07-13T08:40:53;6.63;;;2.20;;
73276;SDS011;61501;43.316;5.372;2023-07-13T08:43:23;8.75;;;1.98;;
73276;SDS011;61501;43.316;5.372;2023-07-13T08:48:56;7.35;;;2.83;;
73276;SDS011;61501;43.316;5.372;2023-07-13T08:51:44;7.72;;;1.77;;
73276;SDS011;61501;43.316;5.372;2023-07-13T08:54:27;17.70;;;2.40;;
73276;SDS011;61501;43.316;5.372;2023-07-13T08:57:00;16.02;;;2.70;;
73276;SDS011;61501;43.316;5.372;2023-07-13T08:59:38;9.77;;;2.05;;
73276;SDS011;61501;43.316;5.372;2023-07-13T09:02:22;12.65;;;1.98;;
73276;SDS011;61501;43.316;5.372;2023-07-13T09:04:55;12.30;;;1.80;;
73276;SDS011;61501;43.316;5.372;2023-07-13T09:07:30;15.27;;;2.85;;
73276;SDS011;61501;43.316;5.372;2023-07-13T09:10:14;14.23;;;2.25;;
73276;SDS011;61501;43.316;5.372;2023-07-13T09:17:51;11.57;;;2.08;;
73276;SDS011;61501;43.316;5.372;2023-07-13T09:20:28;11.30;;;1.98;;
73276;SDS011;61501;43.316;5.372;2023-07-13T09:23:01;12.63;;;2.00;;
73276;SDS011;61501;43.316;5.372;2023-07-13T09:25:35;9.88;;;1.77;;
73276;SDS011;61501;43.316;5.372;2023-07-13T09:28:08;17.50;;;2.33;;
73276;SDS011;61501;43.316;5.372;2023-07-13T09:33:19;9.50;;;1.90;;
73276;SDS011;61501;43.316;5.372;2023-07-13T09:35:46;6.88;;;1.75;;
73276;SDS011;61501;43.316;5.372;2023-07-13T09:38:13;8.82;;;1.70;;
73276;SDS011;61501;43.316;5.372;2023-07-13T09:43:19;18.70;;;2.80;;
73276;SDS011;61501;43.316;5.372;2023-07-13T09:45:46;15.98;;;2.88;;
73276;SDS011;61501;43.316;5.372;2023-07-13T09:48:13;19.45;;;3.70;;
73276;SDS011;61501;43.316;5.372;2023-07-13T09:50:41;21.98;;;5.50;;
73276;SDS011;61501;43.316;5.372;2023-07-13T09:53:18;11.30;;;2.53;;
73276;SDS011;61501;43.316;5.372;2023-07-13T09:55:48;17.05;;;2.70;;
73276;SDS011;61501;43.316;5.372;2023-07-13T09:58:19;10.32;;;1.95;;
73276;SDS011;61501;43.316;5.372;2023-07-13T10:01:01;10.60;;;1.80;;
73276;SDS011;61501;43.316;5.372;2023-07-13T10:03:30;5.22;;;1.90;;
73276;SDS011;61501;43.316;5.372;2023-07-13T10:06:15;9.32;;;1.58;;
73276;SDS011;61501;43.316;5.372;2023-07-13T10:08:44;18.48;;;2.08;;
73276;SDS011;61501;43.316;5.372;2023-07-13T10:14:11;11.07;;;1.63;;
73276;SDS011;61501;43.316;5.372;2023-07-13T10:16:37;9.55;;;2.25;;
73276;SDS011;61501;43.316;5.372;2023-07-13T10:21:55;16.63;;;2.30;;
73276;SDS011;61501;43.316;5.372;2023-07-13T10:24:29;21.92;;;3.42;;
73276;SDS011;61501;43.316;5.372;2023-07-13T10:27:05;5.47;;;1.60;;
73276;SDS011;61501;43.316;5.372;2023-07-13T10:29:44;7.78;;;1.67;;
73276;SDS011;61501;43.316;5.372;2023-07-13T10:32:26;5.78;;;1.60;;
73276;SDS011;61501;43.316;5.372;2023-07-13T10:34:51;10.98;;;1.52;;
73276;SDS011;61501;43.316;5.372;2023-07-13T10:37:24;7.68;;;1.65;;
73276;SDS011;61501;43.316;5.372;2023-07-13T10:39:52;9.40;;;1.70;;
73276;SDS011;61501;43.316;5.372;2023-07-13T10:42:39;10.57;;;1.40;;
73276;SDS011;61501;43.316;5.372;2023-07-13T10:45:13;7.03;;;1.50;;
73276;SDS011;61501;43.316;5.372;2023-07-13T10:47:40;9.15;;;1.70;;
73276;SDS011;61501;43.316;5.372;2023-07-13T10:50:07;7.20;;;1.30;;
73276;SDS011;61501;43.316;5.372;2023-07-13T10:52:47;8.20;;;1.50;;
73276;SDS011;61501;43.316;5.372;2023-07-13T10:55:34;2.00;;;1.00;;
73276;SDS011;61501;43.316;5.372;2023-07-13T11:04:00;9.70;;;2.50;;
73276;SDS011;61501;43.316;5.372;2023-07-13T11:08:57;4.72;;;1.38;;
73276;SDS011;61501;43.316;5.372;2023-07-13T11:21:27;7.28;;;1.70;;
73276;SDS011;61501;43.316;5.372;2023-07-13T11:24:14;11.35;;;1.40;;
73276;SDS011;61501;43.316;5.372;2023-07-13T11:31:58;6.45;;;1.35;;
73276;SDS011;61501;43.316;5.372;2023-07-13T11:34:36;8.10;;;1.70;;
73276;SDS011;61501;43.316;5.372;2023-07-13T11:37:07;13.45;;;1.65;;
73276;SDS011;61501;43.316;5.372;2023-07-13T11:39:38;7.78;;;1.73;;
73276;SDS011;61501;43.316;5.372;2023-07-13T11:42:17;3.50;;;1.33;;
73276;SDS011;61501;43.316;5.372;2023-07-13T11:44:46;9.23;;;1.35;;
73276;SDS011;61501;43.316;5.372;2023-07-13T11:47:17;5.68;;;1.38;;
73276;SDS011;61501;43.316;5.372;2023-07-13T11:49:53;6.70;;;1.30;;
73276;SDS011;61501;43.316;5.372;2023-07-13T11:52:30;6.63;;;1.40;;
73276;SDS011;61501;43.316;5.372;2023-07-13T11:54:59;10.32;;;1.52;;
73276;SDS011;61501;43.316;5.372;2023-07-13T12:00:03;11.90;;;1.63;;
73276;SDS011;61501;43.316;5.372;2023-07-13T12:02:38;5.75;;;1.23;;
73276;SDS011;61501;43.316;5.372;2023-07-13T12:05:09;12.82;;;1.83;;
73276;SDS011;61501;43.316;5.372;2023-07-13T12:07:40;11.52;;;1.80;;
73276;SDS011;61501;43.316;5.372;2023-07-13T12:10:18;12.25;;;1.63;;
73276;SDS011;61501;43.316;5.372;2023-07-13T12:12:55;7.18;;;1.00;;
73276;SDS011;61501;43.316;5.372;2023-07-13T12:15:39;12.68;;;1.20;;
73276;SDS011;61501;43.316;5.372;2023-07-13T12:18:16;7.88;;;1.40;;
73276;SDS011;61501;43.316;5.372;2023-07-13T12:20:49;3.38;;;1.42;;
73276;SDS011;61501;43.316;5.372;2023-07-13T12:23:35;12.20;;;1.67;;
73276;SDS011;61501;43.316;5.372;2023-07-13T12:26:02;4.88;;;1.23;;
73276;SDS011;61501;43.316;5.372;2023-07-13T12:28:36;7.95;;;1.20;;
73276;SDS011;61501;43.316;5.372;2023-07-13T12:31:05;12.82;;;1.60;;
73276;SDS011;61501;43.316;5.372;2023-07-13T12:33:40;8.20;;;1.23;;
73276;SDS011;61501;43.316;5.372;2023-07-13T12:36:06;9.27;;;1.42;;
73276;SDS011;61501;43.316;5.372;2023-07-13T12:38:36;11.90;;;1.67;;
73276;SDS011;61501;43.316;5.372;2023-07-13T12:41:01;4.60;;;1.13;;
73276;SDS011;61501;43.316;5.372;2023-07-13T12:43:28;8.45;;;1.52;;
73276;SDS011;61501;43.316;5.372;2023-07-13T12:46:03;14.73;;;1.85;;
73276;SDS011;61501;43.316;5.372;2023-07-13T12:48:40;8.40;;;1.20;;
73276;SDS011;61501;43.316;5.372;2023-07-13T12:51:09;13.50;;;1.65;;
73276;SDS011;61501;43.316;5.372;2023-07-13T12:53:39;6.32;;;1.27;;
73276;SDS011;61501;43.316;5.372;2023-07-13T12:56:16;7.18;;;1.85;;
73276;SDS011;61501;43.316;5.372;2023-07-13T12:58:46;6.75;;;1.20;;
73276;SDS011;61501;43.316;5.372;2023-07-13T13:01:15;3.03;;;1.13;;
73276;SDS011;61501;43.316;5.372;2023-07-13T13:03:46;3.33;;;1.08;;
73276;SDS011;61501;43.316;5.372;2023-07-13T13:08:44;9.32;;;1.70;;
73276;SDS011;61501;43.316;5.372;2023-07-13T13:11:11;6.20;;;1.20;;
73276;SDS011;61501;43.316;5.372;2023-07-13T13:13:41;3.20;;;1.23;;
73276;SDS011;61501;43.316;5.372;2023-07-13T13:16:11;4.68;;;1.00;;
73276;SDS011;61501;43.316;5.372;2023-07-13T13:19:01;3.70;;;1.20;;
73276;SDS011;61501;43.316;5.372;2023-07-13T13:21:47;9.10;;;1.38;;
73276;SDS011;61501;43.316;5.372;2023-07-13T13:24:16;3.72;;;1.20;;
73276;SDS011;61501;43.316;5.372;2023-07-13T13:26:45;4.65;;;1.30;;
73276;SDS011;61501;43.316;5.372;2023-07-13T13:29:15;5.90;;;1.40;;
73276;SDS011;61501;43.316;5.372;2023-07-13T13:31:42;4.20;;;1.50;;
73276;SDS011;61501;43.316;5.372;2023-07-13T13:34:12;5.13;;;1.35;;
73276;SDS011;61501;43.316;5.372;2023-07-13T13:36:39;9.85;;;1.50;;
73276;SDS011;61501;43.316;5.372;2023-07-13T13:41:46;7.47;;;1.45;;
73276;SDS011;61501;43.316;5.372;2023-07-13T13:44:13;4.47;;;1.00;;
73276;SDS011;61501;43.316;5.372;2023-07-13T13:46:40;5.53;;;1.20;;
73276;SDS011;61501;43.316;5.372;2023-07-13T13:49:17;8.25;;;2.00;;
73276;SDS011;61501;43.316;5.372;2023-07-13T13:51:49;4.80;;;1.58;;
73276;SDS011;61501;43.316;5.372;2023-07-13T13:54:15;4.63;;;1.48;;
73276;SDS011;61501;43.316;5.372;2023-07-13T13:56:42;5.13;;;1.67;;
73276;SDS011;61501;43.316;5.372;2023-07-13T13:59:09;6.80;;;1.50;;
73276;SDS011;61501;43.316;5.372;2023-07-13T14:01:35;4.25;;;1.30;;
73276;SDS011;61501;43.316;5.372;2023-07-13T14:04:02;5.90;;;1.60;;
73276;SDS011;61501;43.316;5.372;2023-07-13T14:06:28;5.70;;;1.25;;
73276;SDS011;61501;43.316;5.372;2023-07-13T14:08:54;4.90;;;1.80;;
73276;SDS011;61501;43.316;5.372;2023-07-13T14:11:20;16.33;;;1.83;;
73276;SDS011;61501;43.316;5.372;2023-07-13T14:13:52;4.55;;;1.33;;
73276;SDS011;61501;43.316;5.372;2023-07-13T14:16:21;9.25;;;1.65;;
73276;SDS011;61501;43.316;5.372;2023-07-13T14:18:48;8.38;;;1.63;;
73276;SDS011;61501;43.316;5.372;2023-07-13T14:21:18;6.85;;;1.38;;
73276;SDS011;61501;43.316;5.372;2023-07-13T14:23:46;5.93;;;1.65;;
73276;SDS011;61501;43.316;5.372;2023-07-13T14:26:13;5.15;;;1.30;;
73276;SDS011;61501;43.316;5.372;2023-07-13T14:28:42;3.35;;;1.30;;
73276;SDS011;61501;43.316;5.372;2023-07-13T14:31:10;2.17;;;1.30;;
73276;SDS011;61501;43.316;5.372;2023-07-13T14:33:37;5.47;;;1.20;;
73276;SDS011;61501;43.316;5.372;2023-07-13T14:36:03;2.97;;;1.35;;
73276;SDS011;61501;43.316;5.372;2023-07-13T14:38:45;4.47;;;1.25;;
73276;SDS011;61501;43.316;5.372;2023-07-13T14:41:11;4.47;;;1.17;;
73276;SDS011;61501;43.316;5.372;2023-07-13T14:43:36;6.93;;;2.05;;
73276;SDS011;61501;43.316;5.372;2023-07-13T14:46:02;7.80;;;1.73;;
73276;SDS011;61501;43.316;5.372;2023-07-13T14:48:29;4.45;;;1.48;;
73276;SDS011;61501;43.316;5.372;2023-07-13T14:50:56;2.58;;;1.30;;
73276;SDS011;61501;43.316;5.372;2023-07-13T14:53:24;6.78;;;1.40;;
73276;SDS011;61501;43.316;5.372;2023-07-13T14:55:52;2.33;;;1.15;;
73276;SDS011;61501;43.316;5.372;2023-07-13T14:58:18;5.35;;;1.20;;
73276;SDS011;61501;43.316;5.372;2023-07-13T15:00:44;1.85;;;1.15;;
73276;SDS011;61501;43.316;5.372;2023-07-13T15:03:19;2.33;;;1.50;;
73276;SDS011;61501;43.316;5.372;2023-07-13T15:05:48;5.70;;;1.73;;
73276;SDS011;61501;43.316;5.372;2023-07-13T15:08:14;4.75;;;1.55;;
73276;SDS011;61501;43.316;5.372;2023-07-13T15:10:40;2.92;;;1.60;;
73276;SDS011;61501;43.316;5.372;2023-07-13T15:15:38;2.63;;;1.10;;
73276;SDS011;61501;43.316;5.372;2023-07-13T15:18:09;2.83;;;1.50;;
73276;SDS011;61501;43.316;5.372;2023-07-13T15:20:37;4.25;;;1.60;;
73276;SDS011;61501;43.316;5.372;2023-07-13T15:23:04;3.80;;;1.63;;
73276;SDS011;61501;43.316;5.372;2023-07-13T15:25:31;2.38;;;1.55;;
73276;SDS011;61501;43.316;5.372;2023-07-13T15:27:58;5.60;;;1.35;;
73276;SDS011;61501;43.316;5.372;2023-07-13T15:30:29;4.78;;;1.30;;
73276;SDS011;61501;43.316;5.372;2023-07-13T15:32:57;4.60;;;1.67;;
73276;SDS011;61501;43.316;5.372;2023-07-13T15:35:35;5.25;;;1.70;;
73276;SDS011;61501;43.316;5.372;2023-07-13T15:38:01;4.75;;;1.50;;
73276;SDS011;61501;43.316;5.372;2023-07-13T15:40:28;4.40;;;1.42;;
73276;SDS011;61501;43.316;5.372;2023-07-13T15:42:54;3.03;;;1.50;;
73276;SDS011;61501;43.316;5.372;2023-07-13T15:45:21;5.40;;;1.70;;
73276;SDS011;61501;43.316;5.372;2023-07-13T15:47:49;6.95;;;1.63;;
73276;SDS011;61501;43.316;5.372;2023-07-13T15:50:17;5.72;;;1.60;;
73276;SDS011;61501;43.316;5.372;2023-07-13T15:52:46;5.03;;;1.70;;
73276;SDS011;61501;43.316;5.372;2023-07-13T15:55:13;2.67;;;1.40;;
73276;SDS011;61501;43.316;5.372;2023-07-13T15:57:41;3.00;;;1.42;;
73276;SDS011;61501;43.316;5.372;2023-07-13T16:02:58;4.07;;;1.95;;
73276;SDS011;61501;43.316;5.372;2023-07-13T16:05:24;5.22;;;1.77;;
73276;SDS011;61501;43.316;5.372;2023-07-13T16:07:50;3.70;;;1.60;;
73276;SDS011;61501;43.316;5.372;2023-07-13T16:10:22;7.75;;;2.00;;
73276;SDS011;61501;43.316;5.372;2023-07-13T16:12:54;3.00;;;1.70;;
73276;SDS011;61501;43.316;5.372;2023-07-13T16:15:21;2.75;;;1.30;;
73276;SDS011;61501;43.316;5.372;2023-07-13T16:17:47;4.47;;;1.50;;
73276;SDS011;61501;43.316;5.372;2023-07-13T16:20:14;4.32;;;1.50;;
73276;SDS011;61501;43.316;5.372;2023-07-13T16:22:41;2.75;;;1.52;;
73276;SDS011;61501;43.316;5.372;2023-07-13T16:27:48;3.72;;;1.60;;
73276;SDS011;61501;43.316;5.372;2023-07-13T16:30:16;4.07;;;1.63;;
73276;SDS011;61501;43.316;5.372;2023-07-13T16:32:46;4.05;;;1.30;;
73276;SDS011;61501;43.316;5.372;2023-07-13T16:35:13;3.70;;;1.23;;
73276;SDS011;61501;43.316;5.372;2023-07-13T16:37:40;3.83;;;1.40;;
73276;SDS011;61501;43.316;5.372;2023-07-13T16:40:17;2.95;;;1.58;;